^^
Your Local Weather - Clay, NY Station Historical Data
Daily Summary for February 24, 2017 Units:  Metric    English   Both
« Previous Day
Next Day »
Daily Weekly Monthly Yearly Custom
  High: Low: Average:
Temperature: 18.5 °C 3.2 °C 10.2 °C
Dew Point: 11.8 °C 1.6 °C 6.9 °C
Humidity: 93% 58% 81%
Wind Speed: 12.9km/h 0km/h 2.6km/h
Wind Gust: 24.1km/h - -
Wind- - ESE
Pressure: 1011.4 hPa 1001.6 hPa -
Precipitation: 12.7 mm    
Historical Graphs
 
 
Tabular Data for February 24, 2017
Time Temperature Dew Point Pressure Wind Wind Speed Wind Gust Humidity Rainfall Rate (Hourly) solar
00:00 6.2 °C 3.5 °C 1011.1 hPa Calm     83% 0 mm 0 W/m2
00:06 6 °C 3.3 °C 1010.7 hPa Calm     83% 0 mm 0 W/m2
00:12 5.8 °C 3.3 °C 1010.7 hPa Calm     84% 0 mm 0 W/m2
00:18 5.6 °C 3.1 °C 1010.7 hPa Calm     84% 0 mm 0 W/m2
00:24 5.2 °C 2.9 °C 1010.7 hPa Calm   1.6 km/h 85% 0 mm 0 W/m2
00:29 5 °C 2.7 °C 1010.7 hPa Calm     85% 0 mm 0 W/m2
00:36 4.8 °C 2.7 °C 1010.7 hPa Calm     86% 0 mm 0 W/m2
00:42 4.7 °C 2.5 °C 1010.7 hPa Calm     86% 0 mm 0 W/m2
00:48 4.5 °C 2.5 °C 1010.7 hPa Calm     87% 0 mm 0 W/m2
00:54 4.3 °C 2.3 °C 1010.7 hPa Calm     87% 0 mm 0 W/m2
00:59 4.1 °C 2.2 °C 1010.7 hPa Calm     87% 0 mm 0 W/m2
01:05 4.1 °C 2.1 °C 1010.7 hPa Calm     87% 0 mm 0 W/m2
01:12 4.1 °C 2.2 °C 1011.1 hPa Calm     88% 0 mm 0 W/m2
01:18 4.1 °C 2.2 °C 1011.4 hPa Calm     88% 0 mm 0 W/m2
01:24 4.1 °C 2.4 °C 1011.1 hPa Calm     89% 0 mm 0 W/m2
01:30 3.9 °C 2.1 °C 1010.7 hPa Calm     88% 0 mm 0 W/m2
01:36 3.8 °C 2 °C 1011.1 hPa Calm     88% 0 mm 0 W/m2
01:42 3.7 °C 1.9 °C 1010.7 hPa Calm   1.6 km/h 88% 0 mm 0 W/m2
01:48 3.6 °C 1.9 °C 1010.7 hPa Calm   1.6 km/h 89% 0 mm 0 W/m2
01:53 3.4 °C 1.7 °C 1010.7 hPa Calm     89% 0 mm 0 W/m2
02:00 3.3 °C 1.6 °C 1011.4 hPa Calm     89% 0 mm 0 W/m2
02:06 3.3 °C 1.7 °C 1011.4 hPa Calm     89% 0 mm 0 W/m2
02:12 3.3 °C 1.8 °C 1011.4 hPa Calm     90% 0 mm 0 W/m2
02:18 3.2 °C 1.6 °C 1011.4 hPa Calm     89% 0 mm 0 W/m2
02:23 3.3 °C 1.8 °C 1011.4 hPa Calm     90% 0 mm 0 W/m2
02:29 3.4 °C 1.9 °C 1011.1 hPa Calm     90% 0 mm 0 W/m2
02:36 3.4 °C 1.9 °C 1011.4 hPa Calm     90% 0 mm 0 W/m2
02:42 3.6 °C 2.1 °C 1011.4 hPa Calm     90% 0 mm 0 W/m2
02:48 3.7 °C 2.2 °C 1011.1 hPa Calm     90% 0 mm 0 W/m2
02:54 3.8 °C 2.3 °C 1011.1 hPa Calm     90% 0 mm 0 W/m2
03:00 3.9 °C 2.6 °C 1011.1 hPa Calm     91% 0 mm 0 W/m2
03:06 3.9 °C 2.6 °C 1011.1 hPa Calm     91% 0 mm 0 W/m2
03:12 3.9 °C 2.6 °C 1011.1 hPa Calm   1.6 km/h 91% 0 mm 0 W/m2
03:18 4 °C 2.7 °C 1010.7 hPa Calm   1.6 km/h 91% 0 mm 0 W/m2
03:23 4.1 °C 2.6 °C 1011.1 hPa Calm   1.6 km/h 90% 0 mm 0 W/m2
03:29 4.2 °C 2.7 °C 1011.1 hPa Calm     90% 0 mm 0 W/m2
03:36 4.3 °C 3 °C 1011.1 hPa Calm   3.2 km/h 91% 0 mm 0 W/m2
03:42 4.5 °C 3 °C 1010.7 hPa Calm     90% 0 mm 0 W/m2
03:48 4.6 °C 3.1 °C 1010.7 hPa Calm     90% 0 mm 0 W/m2
03:53 4.7 °C 3.2 °C 1010.7 hPa Calm   1.6 km/h 90% 0 mm 0 W/m2
04:00 4.7 °C 3.2 °C 1010.7 hPa Calm     90% 0 mm 0 W/m2
04:06 4.7 °C 3.1 °C 1010.7 hPa Calm   3.2 km/h 89% 0 mm 0 W/m2
04:12 4.6 °C 2.9 °C 1010.4 hPa Calm   3.2 km/h 89% 0 mm 0 W/m2
04:18 4.5 °C 2.7 °C 1010.7 hPa Calm   3.2 km/h 88% 0 mm 0 W/m2
04:24 4.4 °C 2.6 °C 1010.7 hPa Calm     88% 0 mm 0 W/m2
04:29 4.4 °C 2.6 °C 1010.7 hPa Calm     88% 0 mm 0 W/m2
04:36 4.3 °C 2.6 °C 1010.7 hPa Calm     89% 0 mm 0 W/m2
04:42 4.1 °C 2.3 °C 1010.7 hPa Calm     88% 0 mm 0 W/m2
04:48 4.1 °C 2.4 °C 1010.7 hPa Calm     89% 0 mm 0 W/m2
04:54 4.1 °C 2.4 °C 1010.4 hPa Calm     89% 0 mm 0 W/m2
05:00 4 °C 2.3 °C 1010.4 hPa Calm     89% 0 mm 0 W/m2
05:06 4 °C 2.3 °C 1010.4 hPa Calm     89% 0 mm 0 W/m2
05:12 3.8 °C 2.2 °C 1010 hPa Calm     89% 0 mm 0 W/m2
05:18 3.7 °C 2 °C 1010.4 hPa Calm     89% 0 mm 0 W/m2
05:24 3.6 °C 1.9 °C 1010.4 hPa Calm     89% 0 mm 0 W/m2
05:29 3.4 °C 1.8 °C 1010 hPa Calm     89% 0 mm 0 W/m2
05:36 3.4 °C 1.7 °C 1010 hPa Calm     89% 0 mm 0 W/m2
05:42 3.4 °C 1.9 °C 1010 hPa Calm     90% 0 mm 0 W/m2
05:48 3.4 °C 1.9 °C 1010 hPa Calm     90% 0 mm 0 W/m2
05:53 3.4 °C 1.9 °C 1009.7 hPa Calm     90% 0 mm 0 W/m2
05:59 3.3 °C 1.8 °C 1009.7 hPa Calm     90% 0 mm 0 W/m2
06:05 3.3 °C 1.8 °C 1009.7 hPa Calm     90% 0 mm 0 W/m2
06:12 3.3 °C 1.8 °C 1009.7 hPa Calm     90% 0 mm 0 W/m2
06:18 3.3 °C 1.8 °C 1009.7 hPa Calm     90% 0 mm 0 W/m2
06:25 3.5 °C 2.2 °C 1009.7 hPa Calm     91% 0 mm 0 W/m2
06:32 3.7 °C 2.3 °C 1009.4 hPa Calm   1.6 km/h 91% 0 mm 0 W/m2
06:38 3.8 °C 2.4 °C 1009.7 hPa Calm   1.6 km/h 91% 0 mm 0 W/m2
06:43 3.8 °C 2.5 °C 1009.4 hPa Calm     91% 0 mm 0 W/m2
06:50 3.9 °C 2.6 °C 1009 hPa Calm     91% 0 mm 0 W/m2
06:56 4 °C 2.7 °C 1009 hPa Calm     91% 0 mm 0 W/m2
07:02 4 °C 2.7 °C 1009 hPa Calm   3.2 km/h 91% 0 mm 9 W/m2
07:08 4.1 °C 2.7 °C 1009 hPa Calm   3.2 km/h 91% 0 mm 11 W/m2
07:13 4.1 °C 2.6 °C 1009 hPa Calm     90% 0 mm 9 W/m2
07:20 4.2 °C 2.7 °C 1009.4 hPa Calm     90% 0 mm 7 W/m2
07:26 4.2 °C 2.7 °C 1009.4 hPa Calm     90% 0 mm 5 W/m2
07:32 4.3 °C 2.8 °C 1009.7 hPa Calm     90% 0 mm 5 W/m2
07:38 4.4 °C 3.1 °C 1009.7 hPa Calm   1.6 km/h 91% 2.79 mm 0 W/m2
07:43 4.4 °C 3.1 °C 1009.7 hPa ENE 1.6 km/h 3.2 km/h 91% 16.51 mm 0 W/m2
07:50 4.4 °C 3.1 °C 1009.4 hPa East 1.6 km/h 1.6 km/h 91% 6.35 mm 5 W/m2
07:55 4.5 °C 3.2 °C 1009.7 hPa ESE 1.6 km/h 1.6 km/h 91% 5.84 mm 0 W/m2
08:02 4.6 °C 3.3 °C 1009.4 hPa SE 1.6 km/h 3.2 km/h 91% 9.65 mm 0 W/m2
08:08 4.6 °C 3.3 °C 1009 hPa East 1.6 km/h 3.2 km/h 91% 10.67 mm 7 W/m2
08:14 4.6 °C 3.4 °C 1009 hPa East 1.6 km/h 4.8 km/h 92% 6.6 mm 9 W/m2
08:20 4.7 °C 3.5 °C 1008.7 hPa East 1.6 km/h 3.2 km/h 92% 4.06 mm 7 W/m2
08:25 4.7 °C 3.6 °C 1009 hPa SSE 3.2 km/h 3.2 km/h 92% 8.38 mm 7 W/m2
08:32 4.8 °C 3.7 °C 1009 hPa SSE 1.6 km/h 3.2 km/h 92% 5.08 mm 9 W/m2
08:38 4.8 °C 3.7 °C 1009 hPa NE 1.6 km/h 4.8 km/h 92% 3.05 mm 7 W/m2
08:44 4.9 °C 3.8 °C 1008.7 hPa ENE 1.6 km/h 4.8 km/h 92% 72.39 mm 5 W/m2
08:50 5 °C 3.8 °C 1009 hPa NNE 1.6 km/h 1.6 km/h 92% 9.91 mm 7 W/m2
08:55 5.2 °C 4.2 °C 1008.7 hPa ESE 3.2 km/h 6.4 km/h 93% 5.84 mm 14 W/m2
09:02 5.4 °C 4.3 °C 1009 hPa SE 3.2 km/h 3.2 km/h 93% 7.11 mm 37 W/m2
09:08 5.5 °C 4.4 °C 1009 hPa SE 1.6 km/h 3.2 km/h 93% 2.54 mm 26 W/m2
09:14 5.6 °C 4.6 °C 1008.7 hPa ESE 1.6 km/h 6.4 km/h 93% 2.29 mm 46 W/m2
09:20 5.7 °C 4.6 °C 1008.7 hPa SE 1.6 km/h 1.6 km/h 93% 1.27 mm 53 W/m2
09:25 5.8 °C 4.7 °C 1008.7 hPa Calm   1.6 km/h 93% 0 mm 58 W/m2
09:32 5.9 °C 4.8 °C 1008.7 hPa Calm     93% 0 mm 60 W/m2
09:38 6 °C 4.9 °C 1008.7 hPa Calm   1.6 km/h 93% 0 mm 49 W/m2
09:44 6.1 °C 5 °C 1008.7 hPa Calm     93% 0 mm 54 W/m2
09:50 6.2 °C 5.1 °C 1008.7 hPa Calm     93% 0 mm 114 W/m2
09:55 6.4 °C 5.3 °C 1008.7 hPa Calm     93% 0 mm 130 W/m2
10:02 6.6 °C 5.5 °C 1008.7 hPa Calm     93% 0 mm 142 W/m2
10:08 6.6 °C 5.6 °C 1008.7 hPa ENE 1.6 km/h 4.8 km/h 93% 0 mm 153 W/m2
10:14 6.7 °C 5.6 °C 1008.7 hPa East 1.6 km/h 3.2 km/h 93% 0 mm 134 W/m2
10:20 6.7 °C 5.7 °C 1008.7 hPa ENE 1.6 km/h 3.2 km/h 93% 0 mm 107 W/m2
10:25 6.7 °C 5.7 °C 1008.7 hPa East 1.6 km/h 4.8 km/h 93% 0 mm 105 W/m2
10:32 6.9 °C 5.8 °C 1008.7 hPa ESE 1.6 km/h 1.6 km/h 93% 0 mm 148 W/m2
10:38 7.1 °C 6.1 °C 1008.4 hPa ESE 1.6 km/h 4.8 km/h 93% 0 mm 229 W/m2
10:43 7.4 °C 6.4 °C 1008.4 hPa ESE 1.6 km/h 3.2 km/h 93% 0 mm 285 W/m2
10:49 7.7 °C 6.6 °C 1008 hPa East 1.6 km/h 4.8 km/h 93% 0 mm 355 W/m2
10:56 7.6 °C 6.6 °C 1008 hPa East 3.2 km/h 4.8 km/h 93% 0 mm 225 W/m2
11:02 7.8 °C 6.8 °C 1008 hPa NE 1.6 km/h 8 km/h 93% 0 mm 100 W/m2
11:08 7.8 °C 6.6 °C 1008 hPa ENE 1.6 km/h 8 km/h 92% 0 mm 127 W/m2
11:14 7.9 °C 6.7 °C 1008 hPa ENE 1.6 km/h 4.8 km/h 92% 0 mm 91 W/m2
11:19 7.8 °C 6.6 °C 1008 hPa ENE 1.6 km/h 1.6 km/h 92% 0 mm 83 W/m2
11:26 7.7 °C 6.4 °C 1008 hPa NNW 3.2 km/h 6.4 km/h 92% 0 mm 69 W/m2
11:32 7.4 °C 6.2 °C 1008 hPa NNE 4.8 km/h 4.8 km/h 92% 0 mm 63 W/m2
11:38 7.2 °C 6 °C 1007.7 hPa NE 4.8 km/h 6.4 km/h 92% 0 mm 77 W/m2
11:43 7.1 °C 5.7 °C 1007.7 hPa East 3.2 km/h 9.7 km/h 91% 0 mm 56 W/m2
11:46 7 °C 5.8 °C 1007.7 hPa ENE 3.2 km/h 9.7 km/h 92% 0 mm 69 W/m2
11:52 7.1 °C 5.8 °C 1007 hPa ENE 4.8 km/h 8 km/h 92% 0 mm 211 W/m2
11:58 7.4 °C 6.2 °C 1007 hPa ESE 4.8 km/h 12.9 km/h 92% 0 mm 211 W/m2
12:04 7.7 °C 6.4 °C 1006.7 hPa East 4.8 km/h 4.8 km/h 92% 0 mm 221 W/m2
12:10 8 °C 6.8 °C 1006.7 hPa East 6.4 km/h 6.4 km/h 92% 0 mm 283 W/m2
12:15 8.7 °C 7.4 °C 1006.3 hPa ESE 8 km/h 12.9 km/h 92% 0 mm 512 W/m2
12:22 9.3 °C 7.9 °C 1006 hPa ENE 8 km/h 11.3 km/h 91% 0 mm 519 W/m2
12:28 10.1 °C 8.3 °C 1006 hPa SE 9.7 km/h 11.3 km/h 89% 0 mm 388 W/m2
12:34 10.7 °C 8.9 °C 1006 hPa SE 8 km/h 9.7 km/h 89% 0 mm 376 W/m2
12:39 11.2 °C 9.3 °C 1005.6 hPa ESE 6.4 km/h 6.4 km/h 88% 0 mm 657 W/m2
12:46 11.4 °C 8.9 °C 1005.6 hPa ESE 6.4 km/h 8 km/h 85% 0 mm 487 W/m2
12:52 11.6 °C 9.1 °C 1005.6 hPa ESE 6.4 km/h 6.4 km/h 85% 0 mm 381 W/m2
12:58 11.7 °C 9.3 °C 1005.6 hPa SSE 4.8 km/h 6.4 km/h 85% 0 mm 387 W/m2
13:04 12 °C 9.4 °C 1005.3 hPa ENE 3.2 km/h 11.3 km/h 84% 0 mm 318 W/m2
13:09 12.2 °C 9.4 °C 1005.3 hPa SSE 4.8 km/h 4.8 km/h 83% 0 mm 448 W/m2
13:16 12.6 °C 10 °C 1005 hPa East 4.8 km/h 4.8 km/h 84% 0 mm 420 W/m2
13:22 12.8 °C 9.7 °C 1005 hPa NE 3.2 km/h 6.4 km/h 81% 0 mm 290 W/m2
13:28 12.8 °C 9.8 °C 1005 hPa NE 3.2 km/h 6.4 km/h 82% 0 mm 246 W/m2
13:34 13.2 °C 10.1 °C 1005 hPa ENE 4.8 km/h 4.8 km/h 81% 0 mm 596 W/m2
13:40 14.1 °C 10.3 °C 1005 hPa East 3.2 km/h 3.2 km/h 78% 0 mm 568 W/m2
13:45 14.2 °C 10.4 °C 1005 hPa ENE 3.2 km/h 3.2 km/h 78% 0 mm 563 W/m2
13:52 14.3 °C 10.7 °C 1004.6 hPa NNE 3.2 km/h 6.4 km/h 79% 0 mm 550 W/m2
13:58 14.9 °C 11.2 °C 1004.6 hPa NNE 3.2 km/h 6.4 km/h 78% 0 mm 606 W/m2
14:04 14.8 °C 10.8 °C 1004.6 hPa SE 3.2 km/h 8 km/h 77% 0 mm 290 W/m2
14:10 14.7 °C 10.6 °C 1004.3 hPa ENE 4.8 km/h 4.8 km/h 76% 0 mm 279 W/m2
14:16 14.9 °C 10.5 °C 1004.3 hPa ENE 4.8 km/h 4.8 km/h 75% 0 mm 619 W/m2
14:22 15.2 °C 11.2 °C 1004.3 hPa NNE 4.8 km/h 4.8 km/h 77% 0 mm 239 W/m2
14:28 15.4 °C 11.1 °C 1004.3 hPa NNE 4.8 km/h 9.7 km/h 75% 0 mm 506 W/m2
14:33 15.7 °C 10.6 °C 1004.3 hPa ENE 4.8 km/h 4.8 km/h 72% 0 mm 476 W/m2
14:40 15.6 °C 10.9 °C 1004.3 hPa North 3.2 km/h 4.8 km/h 74% 0 mm 471 W/m2
14:46 15.8 °C 10.9 °C 1004.3 hPa NNE 4.8 km/h 4.8 km/h 73% 0 mm 438 W/m2
14:52 16.1 °C 11.1 °C 1004.3 hPa ENE 3.2 km/h 3.2 km/h 72% 0 mm 396 W/m2
14:58 16.4 °C 11.2 °C 1003.9 hPa NE 1.6 km/h 6.4 km/h 71% 0 mm 390 W/m2
15:03 16.1 °C 11.2 °C 1003.9 hPa ENE 3.2 km/h 3.2 km/h 73% 0 mm 248 W/m2
15:10 16 °C 11.4 °C 1003.9 hPa ENE 3.2 km/h 3.2 km/h 74% 0 mm 373 W/m2
15:16 16.1 °C 11.1 °C 1003.9 hPa North 3.2 km/h 4.8 km/h 72% 0 mm 304 W/m2
15:22 16.4 °C 11.1 °C 1003.9 hPa ENE 3.2 km/h 3.2 km/h 71% 0 mm 329 W/m2
15:28 16.4 °C 11.4 °C 1003.9 hPa NE 3.2 km/h 3.2 km/h 72% 0 mm 195 W/m2
15:34 16.4 °C 11.2 °C 1003.9 hPa NE 3.2 km/h 4.8 km/h 71% 0 mm 381 W/m2
15:40 16.6 °C 11.3 °C 1003.9 hPa NE 3.2 km/h 4.8 km/h 71% 0 mm 153 W/m2
15:45 16.6 °C 11.6 °C 1003.9 hPa NNE 3.2 km/h 4.8 km/h 72% 0 mm 176 W/m2
15:52 16.6 °C 11.7 °C 1003.9 hPa ENE 1.6 km/h 3.2 km/h 73% 0 mm 118 W/m2
15:58 16.5 °C 11.2 °C 1003.9 hPa ENE 1.6 km/h 3.2 km/h 71% 0 mm 107 W/m2
16:04 16.5 °C 11.4 °C 1003.6 hPa ENE 1.6 km/h 1.6 km/h 72% 0 mm 120 W/m2
16:10 16.4 °C 11.4 °C 1003.6 hPa ENE 1.6 km/h 1.6 km/h 72% 0 mm 121 W/m2
16:16 16.5 °C 11.7 °C 1003.6 hPa Calm   3.2 km/h 73% 0 mm 86 W/m2
16:22 16.4 °C 11.3 °C 1003.6 hPa ENE 1.6 km/h 1.6 km/h 72% 0 mm 58 W/m2
16:28 16.2 °C 11.6 °C 1003.6 hPa ENE 1.6 km/h 1.6 km/h 74% 0 mm 60 W/m2
16:34 16.1 °C 11.6 °C 1003.3 hPa Calm     75% 0 mm 63 W/m2
16:39 15.7 °C 11.7 °C 1003.3 hPa Calm     77% 0 mm 70 W/m2
16:46 15.6 °C 11.7 °C 1003.3 hPa ENE 1.6 km/h 1.6 km/h 78% 0 mm 58 W/m2
16:52 15.3 °C 11.7 °C 1003.3 hPa Calm   1.6 km/h 79% 0 mm 46 W/m2
16:58 15.3 °C 11.7 °C 1003.3 hPa Calm   1.6 km/h 79% 0 mm 46 W/m2
17:03 15.4 °C 11.6 °C 1003.3 hPa Calm     78% 0 mm 51 W/m2
17:09 15.8 °C 11.8 °C 1002.9 hPa Calm   3.2 km/h 77% 0 mm 49 W/m2
17:16 15.8 °C 11.8 °C 1002.9 hPa ENE 1.6 km/h 3.2 km/h 77% 0 mm 44 W/m2
17:22 15.7 °C 11.7 °C 1002.9 hPa ENE 1.6 km/h 1.6 km/h 77% 0 mm 37 W/m2
17:28 15.5 °C 11.7 °C 1002.9 hPa Calm   1.6 km/h 78% 0 mm 28 W/m2
17:34 15.4 °C 11.6 °C 1002.9 hPa Calm     78% 0 mm 18 W/m2
17:40 15.1 °C 11.5 °C 1002.9 hPa Calm     79% 0 mm 7 W/m2
17:45 14.8 °C 11.4 °C 1002.9 hPa Calm     80% 0 mm 0 W/m2
17:52 14.6 °C 11.3 °C 1002.9 hPa Calm     81% 0 mm 0 W/m2
17:58 14.5 °C 11.1 °C 1003.3 hPa Calm     80% 0 mm 0 W/m2
18:03 14.3 °C 10.9 °C 1003.3 hPa Calm     80% 0 mm 0 W/m2
18:10 13.9 °C 10.7 °C 1003.3 hPa Calm     81% 0 mm 0 W/m2
18:16 13.6 °C 10.6 °C 1003.3 hPa Calm     82% 0 mm 0 W/m2
18:22 13.3 °C 10.5 °C 1003.3 hPa Calm     83% 0 mm 0 W/m2
18:28 13.3 °C 10.6 °C 1003.3 hPa Calm   1.6 km/h 84% 0 mm 0 W/m2
18:33 13.4 °C 10.7 °C 1002.9 hPa Calm     84% 0 mm 0 W/m2
18:40 13.4 °C 10.6 °C 1002.9 hPa Calm     83% 0 mm 0 W/m2
18:46 13.6 °C 10.4 °C 1002.9 hPa Calm     81% 0 mm 0 W/m2
18:52 14.2 °C 10.4 °C 1002.9 hPa Calm     78% 0 mm 0 W/m2
18:58 14.7 °C 10.3 °C 1002.9 hPa South 1.6 km/h 3.2 km/h 75% 0 mm 0 W/m2
19:03 15.1 °C 10.3 °C 1002.9 hPa South 1.6 km/h 1.6 km/h 73% 0 mm 0 W/m2
19:09 16.1 °C 10.4 °C 1002.9 hPa South 1.6 km/h 4.8 km/h 69% 0 mm 0 W/m2
19:16 16.5 °C 10.3 °C 1002.9 hPa SSE 3.2 km/h 4.8 km/h 67% 0 mm 0 W/m2
19:22 16.9 °C 10.3 °C 1002.9 hPa South 1.6 km/h 4.8 km/h 65% 0 mm 0 W/m2
19:28 18 °C 10.4 °C 1002.9 hPa South 4.8 km/h 9.7 km/h 61% 0 mm 0 W/m2
19:33 18.5 °C 10.3 °C 1002.9 hPa SSE 4.8 km/h 9.7 km/h 59% 0 mm 0 W/m2
19:40 18.4 °C 10 °C 1002.9 hPa South 3.2 km/h 6.4 km/h 58% 0 mm 0 W/m2
19:46 18.5 °C 10.1 °C 1002.9 hPa SSE 4.8 km/h 11.3 km/h 58% 0 mm 0 W/m2
19:52 18.3 °C 9.9 °C 1002.9 hPa SSE 3.2 km/h 8 km/h 58% 0 mm 0 W/m2
19:58 17.7 °C 9.8 °C 1002.9 hPa SSE 1.6 km/h 8 km/h 60% 0 mm 0 W/m2
20:03 17.1 °C 9.7 °C 1002.9 hPa SSE 1.6 km/h 1.6 km/h 62% 0 mm 0 W/m2
20:10 16.2 °C 9.6 °C 1003.3 hPa Calm     65% 0 mm 0 W/m2
20:15 15.6 °C 9.7 °C 1003.3 hPa Calm     68% 0 mm 0 W/m2
20:22 15.2 °C 9.6 °C 1003.3 hPa South 1.6 km/h 4.8 km/h 69% 0 mm 0 W/m2
20:28 15.8 °C 9.7 °C 1003.3 hPa SSE 3.2 km/h 8 km/h 67% 0 mm 0 W/m2
20:33 16.8 °C 9.9 °C 1002.9 hPa SSE 4.8 km/h 4.8 km/h 64% 0 mm 0 W/m2
20:39 17.6 °C 9.9 °C 1003.3 hPa South 4.8 km/h 4.8 km/h 61% 0 mm 0 W/m2
20:46 17.9 °C 10 °C 1003.3 hPa SSE 4.8 km/h 4.8 km/h 60% 0 mm 0 W/m2
20:52 18.1 °C 9.9 °C 1003.3 hPa South 4.8 km/h 4.8 km/h 59% 0 mm 0 W/m2
20:58 18.1 °C 9.9 °C 1003.3 hPa South 3.2 km/h 8 km/h 59% 0 mm 0 W/m2
21:04 18.2 °C 10.1 °C 1003.3 hPa South 4.8 km/h 8 km/h 59% 0 mm 0 W/m2
21:10 18.2 °C 10.1 °C 1002.9 hPa South 4.8 km/h 9.7 km/h 59% 0 mm 0 W/m2
21:15 18.3 °C 10.1 °C 1002.9 hPa South 4.8 km/h 9.7 km/h 59% 0 mm 0 W/m2
21:22 18.3 °C 10.1 °C 1002.9 hPa SSE 6.4 km/h 9.7 km/h 59% 0 mm 0 W/m2
21:28 18.5 °C 10.3 °C 1002.9 hPa South 8 km/h 9.7 km/h 59% 0 mm 0 W/m2
21:34 18.4 °C 10.3 °C 1002.9 hPa SSE 8 km/h 8 km/h 59% 0 mm 0 W/m2
21:40 18.4 °C 10.6 °C 1002.9 hPa SSW 6.4 km/h 6.4 km/h 60% 0 mm 0 W/m2
21:45 18.4 °C 10.5 °C 1002.9 hPa SSW 6.4 km/h 12.9 km/h 60% 0 mm 0 W/m2
21:52 18.4 °C 10.6 °C 1002.9 hPa SSE 8 km/h 8 km/h 60% 0 mm 0 W/m2
21:58 18.4 °C 10.5 °C 1002.6 hPa South 6.4 km/h 8 km/h 60% 0 mm 0 W/m2
22:04 18.3 °C 10.7 °C 1002.6 hPa South 8 km/h 9.7 km/h 61% 0 mm 0 W/m2
22:10 18.4 °C 10.7 °C 1002.3 hPa SSE 9.7 km/h 12.9 km/h 61% 0 mm 0 W/m2
22:15 18.4 °C 10.6 °C 1002.3 hPa SE 9.7 km/h 12.9 km/h 60% 0 mm 0 W/m2
22:22 18.4 °C 10.5 °C 1002.3 hPa SSW 11.3 km/h 19.3 km/h 60% 0 mm 0 W/m2
22:28 18.3 °C 10.7 °C 1002.3 hPa SSE 11.3 km/h 19.3 km/h 61% 0 mm 0 W/m2
22:34 18.2 °C 10.5 °C 1002.3 hPa South 9.7 km/h 11.3 km/h 61% 0 mm 0 W/m2
22:40 18.3 °C 10.6 °C 1002.3 hPa SSE 9.7 km/h 11.3 km/h 61% 0 mm 0 W/m2
22:45 18.3 °C 10.6 °C 1001.9 hPa South 11.3 km/h 11.3 km/h 61% 0 mm 0 W/m2
22:52 18.2 °C 10.8 °C 1001.9 hPa South 11.3 km/h 11.3 km/h 62% 0 mm 0 W/m2
22:58 18.1 °C 10.7 °C 1001.9 hPa SSE 11.3 km/h 16.1 km/h 62% 0 mm 0 W/m2
23:06 18.1 °C 10.7 °C 1001.6 hPa SSE 11.3 km/h 16.1 km/h 62% 0 mm 0 W/m2
23:12 18 °C 10.6 °C 1001.6 hPa South 11.3 km/h 22.5 km/h 62% 0 mm 0 W/m2
23:18 17.9 °C 10.8 °C 1001.6 hPa SE 11.3 km/h 22.5 km/h 63% 0 mm 0 W/m2
23:24 17.9 °C 10.8 °C 1001.6 hPa South 11.3 km/h 14.5 km/h 63% 0 mm 0 W/m2
23:30 17.9 °C 10.7 °C 1001.6 hPa South 12.9 km/h 12.9 km/h 63% 0 mm 0 W/m2
23:36 17.8 °C 10.6 °C 1001.6 hPa South 12.9 km/h 19.3 km/h 63% 0 mm 0 W/m2
23:42 17.7 °C 10.6 °C 1001.6 hPa SSW 12.9 km/h 12.9 km/h 63% 0 mm 0 W/m2
23:48 17.7 °C 10.8 °C 1001.6 hPa South 12.9 km/h 14.5 km/h 64% 0 mm 0 W/m2
23:54 17.6 °C 10.7 °C 1001.6 hPa SSW 12.9 km/h 24.1 km/h 64% 0 mm 0 W/m2
Country Meadow, Clay, NY, USA
Compliments of Weather Underground - 2 mb